Time;durP1;ratioP1;P1;durP2;ratioP2;P2;SDS_P1;SDS_P2;PMS_P1;PMS_P2;Temp;Humidity;BMP_temperature;BMP_pressure;BME280_temperature;BME280_humidity;BME280_pressure;Samples;Min_cycle;Max_cycle;Signal;HPM_P1;HPM_P2
2022/02/27 00:02:12;;;;;;;;;;;;;;;17.47;42.84;101767.03;5076624;28;981;-68
2022/02/27 00:04:38;;;;;;;;;;;;;;;17.37;42.41;101782.31;5076728;28;1978;-67
2022/02/27 00:07:05;;;;;;;;;;;;;;;16.89;41.67;101781.91;5076498;28;1027;-67
2022/02/27 00:09:30;;;;;;;;;;;;;;;16.82;42.11;101783.16;5076940;28;845;-67
2022/02/27 00:11:56;;;;;;;;;;;;;;;17.27;44.31;101790.44;5076697;28;1390;-64
2022/02/27 00:14:22;;;;;;;;;;;;;;;17.72;43.36;101789.34;5076919;28;1115;-65
2022/02/27 00:16:47;;;;;;;;;;;;;;;17.88;42.66;101782.13;5075520;28;805;-67
2022/02/27 00:19:13;;;;;;;;;;;;;;;17.56;43.29;101777.34;5076546;28;841;-65
2022/02/27 00:21:38;;;;;;;;;;;;;;;17.33;43.79;101778.41;5076711;28;816;-66
2022/02/27 00:24:04;;;;;;;;;;;;;;;17.16;43.10;101774.88;5076498;28;1905;-67
2022/02/27 00:26:29;;;;;;;;;;;;;;;16.92;42.09;101781.41;5076393;28;761;-66
2022/02/27 00:28:55;;;;;;;;;;;;;;;17.05;43.51;101782.13;5076550;28;850;-68
2022/02/27 00:31:21;;;;;;;;;;;;;;;17.47;43.81;101775.28;5075024;28;1078;-67
2022/02/27 00:33:46;;;;;;;;;;;;;;;17.96;42.54;101769.84;5076540;28;765;-64
2022/02/27 00:36:12;;;;;;;;;;;;;;;18.02;42.42;101760.56;5108532;28;770;-64
2022/02/27 00:38:37;;;;;;;;;;;;;;;17.77;42.66;101764.66;5076497;28;894;-64
2022/02/27 00:41:03;;;;;;;;;;;;;;;17.42;43.18;101760.38;5076474;28;813;-65
2022/02/27 00:43:28;;;;;;;;;;;;;;;17.29;43.29;101758.00;5076113;28;1988;-66
2022/02/27 00:45:53;;;;;;;;;;;;;;;16.88;42.04;101754.66;5076420;28;1007;-66
2022/02/27 00:48:19;;;;;;;;;;;;;;;16.85;41.65;101749.66;5075589;28;1077;-65
2022/02/27 00:50:44;;;;;;;;;;;;;;;17.09;44.35;101748.38;5076493;28;782;-67
2022/02/27 00:53:10;;;;;;;;;;;;;;;17.66;43.27;101748.31;5076363;28;906;-66
2022/02/27 00:55:36;;;;;;;;;;;;;;;18.03;42.42;101753.94;5075560;28;837;-67
2022/02/27 00:58:01;;;;;;;;;;;;;;;17.98;42.38;101745.66;5074542;28;990;-66
2022/02/27 01:00:27;;;;;;;;;;;;;;;17.64;43.06;101748.53;5075781;28;853;-64
2022/02/27 01:02:52;;;;;;;;;;;;;;;17.39;43.21;101747.16;5075678;28;856;-66
2022/02/27 01:05:19;;;;;;;;;;;;;;;17.42;43.52;101743.88;5074577;28;1984;-64
2022/02/27 01:07:44;;;;;;;;;;;;;;;17.25;43.07;101741.22;5075999;28;746;-68
2022/02/27 01:10:10;;;;;;;;;;;;;;;17.16;43.14;101753.72;5108462;28;1207;-65
2022/02/27 01:12:37;;;;;;;;;;;;;;;17.05;43.49;101752.72;5075378;28;1139;-63
2022/02/27 01:15:02;;;;;;;;;;;;;;;17.08;43.13;101755.00;5075917;28;769;-64
2022/02/27 01:17:28;;;;;;;;;;;;;;;16.93;43.19;101758.34;5074136;28;1096;-65
2022/02/27 01:19:53;;;;;;;;;;;;;;;16.73;41.95;101764.34;5075849;28;898;-65
2022/02/27 01:22:19;;;;;;;;;;;;;;;16.73;43.10;101750.59;5075990;28;833;-66
2022/02/27 01:24:44;;;;;;;;;;;;;;;17.49;43.59;101754.72;5075791;28;1901;-64
2022/02/27 01:27:10;;;;;;;;;;;;;;;17.16;44.23;101744.66;5107769;28;807;-66
2022/02/27 01:29:35;;;;;;;;;;;;;;;16.99;43.79;101753.75;5113890;28;1120;-67
2022/02/27 01:32:01;;;;;;;;;;;;;;;16.91;43.68;101743.19;5081868;28;1061;-66
2022/02/27 01:34:26;;;;;;;;;;;;;;;16.77;42.69;101749.03;5115129;28;1123;-67
2022/02/27 01:36:52;;;;;;;;;;;;;;;16.91;44.74;101744.03;5082407;28;829;-66
2022/02/27 01:39:18;;;;;;;;;;;;;;;17.40;43.69;101750.72;5080277;28;1017;-67
2022/02/27 01:41:45;;;;;;;;;;;;;;;17.04;43.79;101753.84;5115089;28;1112;-66
2022/02/27 01:44:11;;;;;;;;;;;;;;;16.89;43.99;101748.13;5082403;28;1990;-66
2022/02/27 01:46:40;;;;;;;;;;;;;;;16.84;42.70;101735.09;5080594;28;1094;-65
2022/02/27 01:49:06;;;;;;;;;;;;;;;16.57;42.85;101737.69;5114745;28;1462;-61
2022/02/27 01:51:31;;;;;;;;;;;;;;;17.54;43.45;101745.69;5082246;28;811;-63
2022/02/27 01:53:57;;;;;;;;;;;;;;;17.31;43.53;101739.34;5082218;28;799;-64
2022/02/27 01:56:22;;;;;;;;;;;;;;;17.00;43.70;101733.44;5115053;28;1342;-65
2022/02/27 01:58:48;;;;;;;;;;;;;;;16.94;43.71;101734.44;5114781;28;1294;-64
2022/02/27 02:01:13;;;;;;;;;;;;;;;16.86;42.43;101738.44;5097180;28;1117;-63
2022/02/27 02:03:39;;;;;;;;;;;;;;;16.95;44.93;101741.59;5114413;28;1990;-65
2022/02/27 02:06:04;;;;;;;;;;;;;;;17.19;43.89;101738.63;5082083;28;828;-65
2022/02/27 02:08:30;;;;;;;;;;;;;;;16.97;43.72;101731.22;5082245;28;935;-62
2022/02/27 02:10:59;;;;;;;;;;;;;;;16.77;43.58;101743.53;5082030;28;800;-63
2022/02/27 02:13:24;;;;;;;;;;;;;;;16.53;42.52;101740.09;5114361;28;1031;-63
2022/02/27 02:15:57;;;;;;;;;;;;;;;16.50;43.60;101748.03;5082265;28;871;-64
2022/02/27 02:18:29;;;;;;;;;;;;;;;17.27;44.27;101747.25;5114541;28;1339;-66
2022/02/27 02:20:55;;;;;;;;;;;;;;;17.06;44.11;101746.16;5082275;28;832;-63
2022/02/27 02:23:20;;;;;;;;;;;;;;;16.85;44.16;101753.25;5081990;28;1981;-63
2022/02/27 02:25:46;;;;;;;;;;;;;;;16.70;43.43;101753.81;5081927;28;992;-62
2022/02/27 02:28:11;;;;;;;;;;;;;;;16.43;42.36;101754.50;5114662;28;1137;-64
2022/02/27 02:30:37;;;;;;;;;;;;;;;16.84;44.86;101759.00;5080112;28;1125;-65
2022/02/27 02:33:02;;;;;;;;;;;;;;;17.04;44.32;101763.97;5114018;28;1365;-66
2022/02/27 02:35:28;;;;;;;;;;;;;;;16.88;44.33;101760.16;5114706;28;1108;-62
2022/02/27 02:37:54;;;;;;;;;;;;;;;16.68;43.89;101756.00;5082160;28;769;-62
2022/02/27 02:40:21;;;;;;;;;;;;;;;16.65;43.73;101751.03;5111371;28;1313;-65
2022/02/27 02:42:46;;;;;;;;;;;;;;;16.75;44.26;101753.91;5078617;28;757;-65
2022/02/27 02:45:12;;;;;;;;;;;;;;;16.88;44.60;101750.00;5111315;28;1913;-67
2022/02/27 02:47:41;;;;;;;;;;;;;;;16.99;44.44;101763.94;5076429;28;1010;-65
2022/02/27 02:50:07;;;;;;;;;;;;;;;17.19;44.07;101760.63;5104571;28;1345;-63
2022/02/27 02:52:32;;;;;;;;;;;;;;;17.18;43.69;101768.06;5077555;28;1245;-64
2022/02/27 02:55:00;;;;;;;;;;;;;;;17.05;43.79;101762.91;5110594;28;1400;-64
2022/02/27 02:57:25;;;;;;;;;;;;;;;16.99;44.06;101775.72;5078640;28;847;-65
2022/02/27 02:59:51;;;;;;;;;;;;;;;16.76;43.79;101769.31;5078319;28;762;-66
2022/02/27 03:02:16;;;;;;;;;;;;;;;16.43;42.89;101776.44;5077938;28;808;-66
2022/02/27 03:04:42;;;;;;;;;;;;;;;17.07;44.76;101789.06;5110227;28;1979;-65
2022/02/27 03:07:07;;;;;;;;;;;;;;;17.36;43.28;101777.06;5078066;28;834;-66
2022/02/27 03:09:35;;;;;;;;;;;;;;;16.95;43.92;101774.56;5077904;28;1392;-65
2022/02/27 03:12:02;;;;;;;;;;;;;;;16.88;43.66;101776.63;5078235;28;914;-63
2022/02/27 03:14:28;;;;;;;;;;;;;;;16.68;43.53;101767.00;5078226;28;996;-64
2022/02/27 03:16:53;;;;;;;;;;;;;;;16.51;43.85;101771.63;5077592;28;872;-65
2022/02/27 03:19:18;;;;;;;;;;;;;;;17.42;43.39;101781.56;5078210;28;833;-65
2022/02/27 03:21:44;;;;;;;;;;;;;;;17.15;43.58;101782.28;5077194;28;826;-65
2022/02/27 03:24:09;;;;;;;;;;;;;;;16.80;43.89;101771.56;5077671;28;1977;-64
2022/02/27 03:26:35;;;;;;;;;;;;;;;16.82;43.45;101772.16;5076515;28;872;-66
2022/02/27 03:29:00;;;;;;;;;;;;;;;16.63;43.82;101769.66;5077776;28;864;-66
2022/02/27 03:31:26;;;;;;;;;;;;;;;18.13;41.79;101765.09;5077300;28;836;-66
2022/02/27 03:33:51;;;;;;;;;;;;;;;17.51;43.14;101768.19;5077543;28;896;-67
2022/02/27 03:36:16;;;;;;;;;;;;;;;17.10;43.47;101766.56;5077619;28;873;-65
2022/02/27 03:38:43;;;;;;;;;;;;;;;16.99;43.04;101756.50;5077698;28;845;-66
2022/02/27 03:41:08;;;;;;;;;;;;;;;16.79;42.48;101767.13;5077692;28;824;-66
2022/02/27 03:43:34;;;;;;;;;;;;;;;16.75;43.05;101751.16;5077196;28;1909;-66
2022/02/27 03:45:59;;;;;;;;;;;;;;;17.48;43.62;101750.28;5076514;28;837;-66
2022/02/27 03:48:25;;;;;;;;;;;;;;;18.40;41.00;101747.72;5077962;28;856;-66
2022/02/27 03:50:50;;;;;;;;;;;;;;;17.79;42.21;101746.00;5077083;28;744;-66
2022/02/27 03:53:16;;;;;;;;;;;;;;;17.25;42.83;101743.09;5077089;28;786;-65
2022/02/27 03:55:42;;;;;;;;;;;;;;;17.07;42.99;101742.34;5077369;28;800;-67
2022/02/27 03:58:07;;;;;;;;;;;;;;;16.91;41.94;101737.69;5076962;28;865;-64
2022/02/27 04:00:33;;;;;;;;;;;;;;;16.70;42.43;101737.34;5076790;28;816;-64
2022/02/27 04:02:58;;;;;;;;;;;;;;;16.98;44.07;101723.78;5077057;28;730;-63
2022/02/27 04:05:24;;;;;;;;;;;;;;;17.34;43.71;101730.59;5077244;28;1980;-63
2022/02/27 04:07:49;;;;;;;;;;;;;;;17.72;42.82;101736.25;5076785;28;1484;-68
2022/02/27 04:10:14;;;;;;;;;;;;;;;17.90;42.09;101732.34;5077009;28;1067;-66
2022/02/27 04:12:40;;;;;;;;;;;;;;;17.62;42.63;101734.22;5076756;28;1226;-66
2022/02/27 04:15:06;;;;;;;;;;;;;;;17.21;42.96;101736.47;5076740;28;883;-67
2022/02/27 04:17:31;;;;;;;;;;;;;;;17.09;42.50;101745.66;5077130;28;950;-67
2022/02/27 04:19:57;;;;;;;;;;;;;;;17.04;41.88;101737.34;5076694;28;941;-67
2022/02/27 04:22:22;;;;;;;;;;;;;;;16.81;41.48;101749.34;5076979;28;706;-66
2022/02/27 04:24:48;;;;;;;;;;;;;;;16.88;44.01;101749.16;5076075;28;1901;-67
2022/02/27 04:27:13;;;;;;;;;;;;;;;17.16;43.78;101756.47;5076891;28;998;-66
2022/02/27 04:29:39;;;;;;;;;;;;;;;16.98;43.55;101757.56;5076372;28;970;-67
2022/02/27 04:32:05;;;;;;;;;;;;;;;16.75;43.38;101759.41;5076566;28;859;-66
2022/02/27 04:34:30;;;;;;;;;;;;;;;16.64;43.07;101754.84;5076559;28;900;-67
2022/02/27 04:36:56;;;;;;;;;;;;;;;16.60;43.73;101765.47;5075949;28;784;-68
2022/02/27 04:39:21;;;;;;;;;;;;;;;17.49;43.43;101764.84;5076505;28;758;-66
2022/02/27 04:41:47;;;;;;;;;;;;;;;17.19;43.89;101771.63;5076575;28;777;-67
2022/02/27 04:44:12;;;;;;;;;;;;;;;16.84;43.94;101764.47;5076294;28;1979;-59
2022/02/27 04:46:38;;;;;;;;;;;;;;;16.82;43.28;101756.50;5075509;28;988;-59
2022/02/27 04:49:03;;;;;;;;;;;;;;;16.51;43.31;101752.41;5076821;28;933;-59
2022/02/27 04:51:28;;;;;;;;;;;;;;;18.01;42.11;101758.06;5073892;28;1367;-59
2022/02/27 04:53:54;;;;;;;;;;;;;;;17.57;42.91;101756.16;5075190;28;1419;-61
2022/02/27 04:56:19;;;;;;;;;;;;;;;17.06;43.20;101748.91;5075467;28;1399;-61
2022/02/27 04:58:45;;;;;;;;;;;;;;;16.76;42.41;101754.75;5075392;28;1225;-65
2022/02/27 05:01:10;;;;;;;;;;;;;;;16.80;42.33;101746.84;5075160;28;1095;-61
2022/02/27 05:03:36;;;;;;;;;;;;;;;16.60;42.24;101751.75;5075463;28;1902;-61
2022/02/27 05:06:01;;;;;;;;;;;;;;;16.56;42.29;101758.00;5076213;28;917;-61
2022/02/27 05:08:27;;;;;;;;;;;;;;;16.62;42.90;101762.50;5075666;28;834;-61
2022/02/27 05:10:52;;;;;;;;;;;;;;;16.80;44.38;101755.06;5074388;28;1337;-61
2022/02/27 05:13:17;;;;;;;;;;;;;;;17.40;43.90;101764.47;5074553;28;1332;-60
2022/02/27 05:15:43;;;;;;;;;;;;;;;17.86;42.41;101758.69;5074161;28;1463;-60
2022/02/27 05:18:08;;;;;;;;;;;;;;;17.86;42.25;101778.78;5075611;28;1246;-59
2022/02/27 05:20:34;;;;;;;;;;;;;;;17.30;43.23;101775.34;5075483;28;1491;-59
2022/02/27 05:22:59;;;;;;;;;;;;;;;16.98;42.98;101776.81;5075473;28;806;-59
2022/02/27 05:25:25;;;;;;;;;;;;;;;16.82;42.41;101780.41;5075552;28;1913;-60
2022/02/27 05:27:51;;;;;;;;;;;;;;;16.62;42.32;101789.97;5071935;28;1356;-60
2022/02/27 05:30:18;;;;;;;;;;;;;;;16.72;42.17;101798.38;5074434;28;1209;-61
2022/02/27 05:32:44;;;;;;;;;;;;;;;16.82;43.98;101799.63;5074138;28;1190;-60
2022/02/27 05:35:09;;;;;;;;;;;;;;;17.27;44.28;101815.16;5074432;28;1226;-60
2022/02/27 05:37:35;;;;;;;;;;;;;;;17.77;42.95;101811.44;5073568;28;1317;-60
2022/02/27 05:40:00;;;;;;;;;;;;;;;18.08;42.07;101817.31;5074748;28;1296;-60
2022/02/27 05:42:26;;;;;;;;;;;;;;;17.84;42.42;101829.66;5074269;28;1372;-61
2022/02/27 05:44:51;;;;;;;;;;;;;;;17.51;42.52;101831.44;5074515;28;1978;-59
2022/02/27 05:47:17;;;;;;;;;;;;;;;17.17;42.53;101820.53;5075430;28;928;-59
2022/02/27 05:49:42;;;;;;;;;;;;;;;16.90;42.24;101823.94;5075522;28;820;-59
2022/02/27 05:55:33;;;;;;;;;;;;;;;16.87;42.98;101816.16;5075218;28;682;-59
2022/02/27 05:58:00;;;;;;;;;;;;;;;17.14;44.03;101821.00;5075868;28;850;-59
2022/02/27 06:00:26;;;;;;;;;;;;;;;17.52;43.62;101822.94;5075376;28;843;-60
2022/02/27 06:02:51;;;;;;;;;;;;;;;17.87;42.37;101820.91;5075309;28;781;-59
2022/02/27 06:05:17;;;;;;;;;;;;;;;17.98;42.24;101825.47;5075329;28;1914;-60
2022/02/27 06:07:42;;;;;;;;;;;;;;;17.66;42.65;101831.66;5074906;28;888;-60
2022/02/27 06:10:08;;;;;;;;;;;;;;;17.23;42.76;101831.31;5075480;28;912;-61
2022/02/27 06:12:33;;;;;;;;;;;;;;;17.12;42.15;101829.50;5075212;28;881;-60
2022/02/27 06:14:59;;;;;;;;;;;;;;;16.90;42.13;101818.44;5075099;28;1638;-61
2022/02/27 06:17:24;;;;;;;;;;;;;;;16.74;41.16;101826.41;5078856;28;1041;-60
2022/02/27 06:19:49;;;;;;;;;;;;;;;16.60;41.57;101814.91;5079055;28;808;-59
2022/02/27 06:22:15;;;;;;;;;;;;;;;16.93;43.75;101827.03;5079118;28;743;-60
2022/02/27 06:24:40;;;;;;;;;;;;;;;17.41;43.84;101824.72;5078542;28;1997;-60
2022/02/27 06:27:06;;;;;;;;;;;;;;;18.19;41.90;101832.03;5079635;28;719;-60
2022/02/27 06:29:31;;;;;;;;;;;;;;;17.50;42.65;101821.53;5079040;28;812;-61
2022/02/27 06:31:57;;;;;;;;;;;;;;;17.05;42.78;101821.44;5078493;28;915;-60
2022/02/27 06:34:22;;;;;;;;;;;;;;;16.84;42.23;101822.16;5078963;28;813;-60
2022/02/27 06:36:47;;;;;;;;;;;;;;;16.79;42.16;101819.31;5078296;28;872;-60
2022/02/27 06:39:13;;;;;;;;;;;;;;;16.73;41.98;101819.25;5111384;28;821;-60
2022/02/27 06:41:38;;;;;;;;;;;;;;;16.67;41.90;101831.22;5078994;28;888;-60
2022/02/27 06:44:04;;;;;;;;;;;;;;;16.71;42.79;101826.91;5078127;28;1981;-60
2022/02/27 06:46:29;;;;;;;;;;;;;;;17.19;44.16;101834.84;5078253;28;1514;-59
2022/02/27 06:48:55;;;;;;;;;;;;;;;17.71;43.29;101848.22;5078835;28;890;-60
2022/02/27 06:51:20;;;;;;;;;;;;;;;18.16;42.16;101845.47;5078304;28;793;-60
2022/02/27 06:53:46;;;;;;;;;;;;;;;18.22;42.11;101841.69;5078558;28;806;-60
2022/02/27 06:56:11;;;;;;;;;;;;;;;17.65;42.70;101835.47;5078698;28;790;-60
2022/02/27 06:58:36;;;;;;;;;;;;;;;17.35;43.28;101839.47;5077989;28;839;-60
2022/02/27 07:01:02;;;;;;;;;;;;;;;17.00;42.71;101843.34;5078126;28;835;-62
2022/02/27 07:03:27;;;;;;;;;;;;;;;16.97;41.60;101823.78;5078423;28;1165;-61
2022/02/27 07:05:53;;;;;;;;;;;;;;;16.72;41.29;101841.50;5077688;28;1906;-62
2022/02/27 07:08:18;;;;;;;;;;;;;;;17.03;43.56;101840.09;5078436;28;885;-62
2022/02/27 07:10:44;;;;;;;;;;;;;;;17.14;43.98;101846.59;5110461;28;1709;-60
2022/02/27 07:13:10;;;;;;;;;;;;;;;17.15;43.89;101856.47;5111044;28;1063;-60
2022/02/27 07:15:36;;;;;;;;;;;;;;;16.88;44.00;101859.06;5078248;28;944;-60
2022/02/27 07:18:02;;;;;;;;;;;;;;;16.85;43.21;101856.81;5078127;28;885;-62
2022/02/27 07:20:28;;;;;;;;;;;;;;;16.73;43.32;101852.22;5077732;28;927;-61
2022/02/27 07:22:53;;;;;;;;;;;;;;;16.86;44.07;101853.81;5077896;28;761;-62
2022/02/27 07:25:18;;;;;;;;;;;;;;;17.01;44.36;101856.00;5077791;28;1917;-61
2022/02/27 07:27:44;;;;;;;;;;;;;;;17.28;43.90;101861.66;5077245;28;893;-60
2022/02/27 07:30:10;;;;;;;;;;;;;;;17.50;43.43;101849.03;5077627;28;915;-60
2022/02/27 07:32:35;;;;;;;;;;;;;;;17.44;43.35;101851.69;5077740;28;1025;-63
2022/02/27 07:35:01;;;;;;;;;;;;;;;17.07;43.14;101855.00;5077391;28;883;-63
2022/02/27 07:37:26;;;;;;;;;;;;;;;16.98;42.90;101847.44;5077761;28;777;-64
2022/02/27 07:39:52;;;;;;;;;;;;;;;16.85;42.64;101848.56;5071162;28;825;-63
2022/02/27 07:42:17;;;;;;;;;;;;;;;16.78;42.65;101845.97;5075418;28;1233;-64
2022/02/27 07:44:43;;;;;;;;;;;;;;;17.08;44.09;101847.56;5077189;28;1984;-63
2022/02/27 07:47:08;;;;;;;;;;;;;;;17.48;43.38;101845.72;5077321;28;858;-63
2022/02/27 07:49:34;;;;;;;;;;;;;;;17.72;42.76;101836.13;5076921;28;857;-64
2022/02/27 07:51:59;;;;;;;;;;;;;;;17.76;42.73;101844.69;5077449;28;785;-62
2022/02/27 07:54:24;;;;;;;;;;;;;;;17.39;43.30;101843.38;5077273;28;1013;-61
2022/02/27 07:56:50;;;;;;;;;;;;;;;16.97;43.18;101838.38;5077547;28;801;-64
2022/02/27 07:59:15;;;;;;;;;;;;;;;17.03;42.27;101840.09;5077250;28;758;-65
2022/02/27 08:01:41;;;;;;;;;;;;;;;17.00;42.71;101853.50;5076336;28;1280;-64
2022/02/27 08:04:06;;;;;;;;;;;;;;;16.89;42.98;101852.50;5076972;28;1980;-67
2022/02/27 08:06:32;;;;;;;;;;;;;;;16.88;42.94;101848.91;5076704;28;915;-66
2022/02/27 08:09:00;;;;;;;;;;;;;;;17.01;43.63;101844.16;5075768;28;1356;-67
2022/02/27 08:11:26;;;;;;;;;;;;;;;17.31;44.00;101841.06;5076720;28;1332;-67
2022/02/27 08:13:51;;;;;;;;;;;;;;;17.69;42.90;101836.63;5072891;28;1513;-64
2022/02/27 08:16:17;;;;;;;;;;;;;;;17.87;42.58;101815.41;5074460;28;1188;-64
2022/02/27 08:18:42;;;;;;;;;;;;;;;17.94;42.37;101821.56;5076921;28;1341;-65
2022/02/27 08:21:08;;;;;;;;;;;;;;;17.56;42.75;101823.28;5076767;28;856;-62
2022/02/27 08:23:33;;;;;;;;;;;;;;;17.21;42.61;101805.19;5077014;28;876;-61
2022/02/27 08:26:00;;;;;;;;;;;;;;;16.94;42.50;101803.13;5076634;28;1898;-61
2022/02/27 08:28:25;;;;;;;;;;;;;;;16.83;41.75;101809.50;5076616;28;1143;-61
2022/02/27 08:30:50;;;;;;;;;;;;;;;16.56;42.07;101790.94;5076650;28;839;-61
2022/02/27 08:33:16;;;;;;;;;;;;;;;17.27;44.45;101795.94;5076770;28;817;-59
2022/02/27 08:35:41;;;;;;;;;;;;;;;17.43;43.65;101806.06;5076542;28;945;-59
2022/02/27 08:38:07;;;;;;;;;;;;;;;17.08;43.07;101798.13;5075944;28;855;-59
2022/02/27 08:40:32;;;;;;;;;;;;;;;16.82;43.16;101794.13;5075725;28;919;-61
2022/02/27 08:42:58;;;;;;;;;;;;;;;16.76;43.31;101791.28;5076578;28;855;-62
2022/02/27 08:45:24;;;;;;;;;;;;;;;16.61;43.25;101796.53;5076115;28;1909;-63
2022/02/27 08:47:49;;;;;;;;;;;;;;;16.67;43.31;101792.78;5076123;28;797;-62
2022/02/27 08:50:15;;;;;;;;;;;;;;;16.57;43.97;101784.38;5076320;28;750;-65
2022/02/27 08:52:40;;;;;;;;;;;;;;;16.98;44.24;101803.47;5076337;28;829;-61
2022/02/27 08:55:06;;;;;;;;;;;;;;;17.38;43.76;101796.91;5076282;28;782;-65
2022/02/27 08:57:31;;;;;;;;;;;;;;;17.54;43.09;101785.00;5076495;28;805;-63
2022/02/27 08:59:57;;;;;;;;;;;;;;;17.45;43.17;101789.31;5076583;28;833;-63
2022/02/27 09:02:22;;;;;;;;;;;;;;;17.15;43.54;101778.69;5075769;28;957;-62
2022/02/27 09:04:50;;;;;;;;;;;;;;;16.95;43.24;101766.34;5075442;28;1978;-61
2022/02/27 09:07:15;;;;;;;;;;;;;;;16.60;43.13;101762.72;5075632;28;1158;-63
2022/02/27 09:09:42;;;;;;;;;;;;;;;16.57;42.50;101756.94;5076142;28;770;-63
2022/02/27 09:12:09;;;;;;;;;;;;;;;16.52;42.61;101756.81;5076060;28;876;-67
2022/02/27 09:14:34;;;;;;;;;;;;;;;16.68;44.06;101756.00;5075945;28;1012;-66
2022/02/27 09:17:00;;;;;;;;;;;;;;;16.98;44.46;101762.25;5075238;28;825;-64
2022/02/27 09:19:26;;;;;;;;;;;;;;;17.40;43.42;101754.31;5075978;28;841;-65
2022/02/27 09:21:51;;;;;;;;;;;;;;;17.80;42.62;101757.81;5075858;28;742;-65
2022/02/27 09:24:17;;;;;;;;;;;;;;;17.93;42.13;101751.91;5076293;28;1976;-66
2022/02/27 09:26:45;;;;;;;;;;;;;;;17.64;42.81;101748.53;5075438;28;1438;-65
2022/02/27 09:29:13;;;;;;;;;;;;;;;17.34;43.08;101752.59;5076043;28;788;-65
2022/02/27 09:31:39;;;;;;;;;;;;;;;17.02;43.04;101747.75;5075752;28;945;-64
2022/02/27 09:34:05;;;;;;;;;;;;;;;16.81;42.40;101740.28;5076172;28;894;-64
2022/02/27 09:36:31;;;;;;;;;;;;;;;16.60;42.22;101739.94;5076088;28;737;-63
2022/02/27 09:38:56;;;;;;;;;;;;;;;16.57;42.32;101738.53;5075818;28;849;-64
2022/02/27 09:41:22;;;;;;;;;;;;;;;16.56;43.22;101742.38;5076006;28;814;-63
2022/02/27 09:43:53;;;;;;;;;;;;;;;16.99;44.06;101751.00;5075236;28;1901;-65
2022/02/27 09:46:20;;;;;;;;;;;;;;;16.77;44.52;101757.25;5075001;28;832;-66
2022/02/27 09:48:46;;;;;;;;;;;;;;;16.73;44.14;101752.50;5101832;28;787;-66
2022/02/27 09:51:12;;;;;;;;;;;;;;;16.69;44.40;101749.44;5079881;28;878;-65
2022/02/27 09:53:37;;;;;;;;;;;;;;;16.63;44.06;101747.66;5079629;28;789;-64
2022/02/27 09:56:03;;;;;;;;;;;;;;;16.74;43.94;101757.72;5079452;28;865;-64
2022/02/27 09:58:28;;;;;;;;;;;;;;;16.96;44.08;101756.16;5079798;28;911;-66
2022/02/27 10:00:54;;;;;;;;;;;;;;;17.23;43.56;101750.78;5079384;28;831;-68
2022/02/27 10:03:24;;;;;;;;;;;;;;;17.58;42.77;101749.59;5079725;28;774;-71
2022/02/27 10:05:50;;;;;;;;;;;;;;;17.75;42.65;101741.25;5079676;28;1906;-71
2022/02/27 10:08:16;;;;;;;;;;;;;;;17.68;42.45;101741.44;5079166;28;914;-73
2022/02/27 10:10:53;;;;;;;;;;;;;;;17.28;43.10;101748.13;5079258;28;880;-73
2022/02/27 10:13:39;;;;;;;;;;;;;;;16.95;43.12;101744.34;5079310;28;999;-71
2022/02/27 10:16:09;;;;;;;;;;;;;;;16.72;42.82;101735.19;5074751;28;915;-71
2022/02/27 10:18:45;;;;;;;;;;;;;;;16.56;42.32;101730.53;5079251;28;911;-72
2022/02/27 10:21:20;;;;;;;;;;;;;;;16.46;42.36;101730.38;5078863;28;826;-71
2022/02/27 10:23:54;;;;;;;;;;;;;;;16.56;42.89;101727.78;5079217;28;1905;-74
2022/02/27 10:26:21;;;;;;;;;;;;;;;17.38;43.66;101726.25;5079362;28;823;-74
2022/02/27 10:29:07;;;;;;;;;;;;;;;17.09;43.64;101725.59;5078842;28;875;-72
2022/02/27 10:31:32;;;;;;;;;;;;;;;16.68;43.62;101717.56;5069310;28;1602;-71
2022/02/27 10:33:58;;;;;;;;;;;;;;;16.63;42.83;101709.22;5078931;28;768;-69
2022/02/27 10:36:24;;;;;;;;;;;;;;;16.54;43.58;101703.34;5079203;28;722;-70
2022/02/27 10:38:52;;;;;;;;;;;;;;;16.97;44.52;101695.50;5079423;28;800;-70
2022/02/27 10:41:21;;;;;;;;;;;;;;;17.78;42.66;101692.06;5072853;28;788;-69
2022/02/27 10:43:46;;;;;;;;;;;;;;;18.19;41.29;101686.13;5072401;28;1972;-66
2022/02/27 10:46:13;;;;;;;;;;;;;;;17.30;42.31;101688.19;5078361;28;863;-66
2022/02/27 10:48:38;;;;;;;;;;;;;;;16.98;42.23;101691.63;5072286;28;836;-68
2022/02/27 10:51:08;;;;;;;;;;;;;;;16.76;42.18;101697.09;5078796;28;965;-67
2022/02/27 10:53:34;;;;;;;;;;;;;;;16.61;42.02;101705.91;5104345;28;1105;-68
2022/02/27 10:56:03;;;;;;;;;;;;;;;16.48;42.65;101695.25;5079168;28;800;-70
2022/02/27 10:58:51;;;;;;;;;;;;;;;17.27;43.82;101702.47;5078377;28;825;-70
2022/02/27 11:01:18;;;;;;;;;;;;;;;17.23;43.45;101702.13;5073696;28;839;-69
2022/02/27 11:03:43;;;;;;;;;;;;;;;16.83;43.83;101691.38;5078473;28;1902;-69
2022/02/27 11:06:09;;;;;;;;;;;;;;;16.50;43.30;101687.63;5110546;28;1087;-67
2022/02/27 11:08:34;;;;;;;;;;;;;;;16.46;43.54;101686.47;5110354;28;844;-70
2022/02/27 11:11:00;;;;;;;;;;;;;;;17.37;43.49;101683.34;5078540;28;829;-69
2022/02/27 11:13:25;;;;;;;;;;;;;;;17.55;42.45;101675.84;5078355;28;1032;-66
2022/02/27 11:15:51;;;;;;;;;;;;;;;16.92;43.20;101678.94;5077916;28;891;-67
2022/02/27 11:18:16;;;;;;;;;;;;;;;16.72;42.82;101680.28;5111158;28;844;-68
2022/02/27 11:20:42;;;;;;;;;;;;;;;16.61;42.50;101678.47;5078445;28;726;-67
2022/02/27 11:23:07;;;;;;;;;;;;;;;16.60;43.10;101683.09;5078385;28;864;-67
2022/02/27 11:25:33;;;;;;;;;;;;;;;16.70;44.45;101690.66;5077791;28;1997;-71
2022/02/27 11:28:02;;;;;;;;;;;;;;;17.22;43.88;101677.66;5078219;28;761;-72
2022/02/27 11:30:28;;;;;;;;;;;;;;;17.67;42.42;101673.78;5110653;28;910;-66
2022/02/27 11:32:55;;;;;;;;;;;;;;;17.85;42.11;101664.34;5078106;28;845;-70
2022/02/27 11:35:34;;;;;;;;;;;;;;;17.58;42.62;101678.06;5110926;28;756;-69
2022/02/27 11:37:59;;;;;;;;;;;;;;;17.25;42.86;101671.63;5072319;28;796;-69
2022/02/27 11:40:28;;;;;;;;;;;;;;;17.01;42.51;101674.66;5078192;28;822;-67
2022/02/27 11:42:53;;;;;;;;;;;;;;;16.85;42.29;101668.09;5077694;28;840;-68
2022/02/27 11:45:41;;;;;;;;;;;;;;;16.63;42.40;101659.81;5077555;28;1982;-70
2022/02/27 11:48:07;;;;;;;;;;;;;;;16.56;42.80;101665.50;5077727;28;1781;-66
2022/02/27 11:50:35;;;;;;;;;;;;;;;16.57;43.29;101660.81;5075902;28;1217;-69
2022/02/27 11:53:01;;;;;;;;;;;;;;;16.86;44.20;101664.25;5076926;28;1147;-71
2022/02/27 11:55:40;;;;;;;;;;;;;;;17.43;43.19;101671.31;5077181;28;813;-71
2022/02/27 11:58:05;;;;;;;;;;;;;;;17.91;41.85;101654.25;5076292;28;886;-68
2022/02/27 12:00:40;;;;;;;;;;;;;;;17.92;41.77;101653.13;5076867;28;899;-69
2022/02/27 12:03:24;;;;;;;;;;;;;;;17.43;42.71;101653.97;5076696;28;828;-68
2022/02/27 12:05:51;;;;;;;;;;;;;;;17.02;42.96;101646.06;5071130;28;1909;-69
2022/02/27 12:08:17;;;;;;;;;;;;;;;16.89;42.40;101650.03;5077002;28;992;-71
2022/02/27 12:10:46;;;;;;;;;;;;;;;16.66;42.25;101648.34;5077068;28;851;-71
2022/02/27 12:13:28;;;;;;;;;;;;;;;16.54;42.96;101661.34;5077158;28;1083;-70
2022/02/27 12:16:02;;;;;;;;;;;;;;;16.87;43.63;101651.34;5076268;28;827;-72
2022/02/27 12:18:28;;;;;;;;;;;;;;;17.66;42.77;101635.53;5076904;28;980;-74
2022/02/27 12:20:58;;;;;;;;;;;;;;;18.06;41.48;101637.00;5076930;28;833;-71
2022/02/27 12:23:38;;;;;;;;;;;;;;;17.30;42.50;101624.97;5076927;28;1402;-70
2022/02/27 12:26:24;;;;;;;;;;;;;;;17.02;42.20;101618.59;5077183;28;1913;-71
2022/02/27 12:28:52;;;;;;;;;;;;;;;16.73;41.85;101623.41;5059946;28;1011;-73
2022/02/27 12:31:29;;;;;;;;;;;;;;;16.67;42.59;101617.03;5076259;28;821;-72
2022/02/27 12:33:55;;;;;;;;;;;;;;;16.84;43.83;101607.91;5076768;28;802;-72
2022/02/27 12:36:21;;;;;;;;;;;;;;;17.26;43.23;101607.34;5076674;28;753;-70
2022/02/27 12:38:49;;;;;;;;;;;;;;;17.57;42.44;101604.91;5076989;28;758;-72
2022/02/27 12:41:17;;;;;;;;;;;;;;;17.67;42.22;101594.03;5076309;28;941;-70
2022/02/27 12:43:42;;;;;;;;;;;;;;;17.44;42.57;101592.41;5076788;28;847;-68
2022/02/27 12:46:08;;;;;;;;;;;;;;;17.09;42.51;101602.75;5075869;28;1914;-68
2022/02/27 12:51:20;;;;;;;;;;;;;;;16.53;42.34;101593.78;5065175;28;1217;-69
2022/02/27 12:53:45;;;;;;;;;;;;;;;16.53;42.12;101588.28;5076188;28;849;-72
2022/02/27 12:56:10;;;;;;;;;;;;;;;16.55;42.29;101597.06;5075663;28;1391;-72